Time;durP1;ratioP1;P1;durP2;ratioP2;P2;SDS_P1;SDS_P2;PMS_P1;PMS_P2;Temp;Humidity;BMP_temperature;BMP_pressure;BME280_temperature;BME280_humidity;BME280_pressure;Samples;Min_cycle;Max_cycle;Signal;HPM_P1;HPM_P2
2022/10/05 00:00:20;;;;;;;10.63;5.40;;;;;;;14.95;97.56;101657.06;5035509;28;20064;-58
2022/10/05 00:02:49;;;;;;;9.52;5.60;;;;;;;14.95;97.40;101655.16;5042580;28;20045;-58
2022/10/05 00:05:30;;;;;;;10.45;5.10;;;;;;;14.95;97.34;101659.81;5022436;28;20050;-55
2022/10/05 00:08:16;;;;;;;12.20;6.00;;;;;;;14.95;97.96;101662.56;5023744;28;20054;-56
2022/10/05 00:10:45;;;;;;;9.15;5.45;;;;;;;14.94;97.95;101663.66;5035302;28;20401;-59
2022/10/05 00:13:20;;;;;;;8.85;5.32;;;;;;;14.94;98.06;101660.94;5036587;28;20108;-59
2022/10/05 00:15:49;;;;;;;11.90;5.80;;;;;;;14.94;98.12;101652.69;5012194;28;20042;-59
2022/10/05 00:18:19;;;;;;;8.75;4.90;;;;;;;14.95;98.20;101651.59;5035335;28;20041;-59
2022/10/05 00:20:48;;;;;;;11.27;5.30;;;;;;;14.94;98.03;101647.22;5035550;28;20108;-59
2022/10/05 00:23:20;;;;;;;9.63;5.50;;;;;;;14.93;98.27;101637.31;5036517;28;20488;-56
2022/10/05 00:25:48;;;;;;;14.63;5.35;;;;;;;14.92;98.23;101639.25;5026648;28;20042;-57
2022/10/05 00:28:29;;;;;;;11.98;5.43;;;;;;;14.93;98.65;101637.31;5035155;28;20034;-58
2022/10/05 00:30:57;;;;;;;12.48;6.47;;;;;;;14.91;98.48;101638.44;5014138;28;20065;-54
2022/10/05 00:33:27;;;;;;;9.30;5.50;;;;;;;14.92;98.67;101622.78;5051364;28;20049;-59
2022/10/05 00:35:55;;;;;;;10.00;5.95;;;;;;;14.90;98.65;101628.53;5001790;28;20037;-59
2022/10/05 00:38:22;;;;;;;10.20;5.07;;;;;;;14.90;98.78;101628.53;5033807;28;20072;-56
2022/10/05 00:40:59;;;;;;;9.20;5.22;;;;;;;14.91;98.66;101624.72;5033839;28;20037;-56
2022/10/05 00:43:55;;;;;;;9.95;5.63;;;;;;;14.91;98.74;101623.84;5035325;28;20134;-55
2022/10/05 00:46:28;;;;;;;8.82;5.22;;;;;;;14.90;98.91;101623.03;5039047;28;20048;-56
2022/10/05 00:49:42;;;;;;;11.55;5.25;;;;;;;14.90;98.95;101633.19;5012612;28;20106;-58
2022/10/05 00:52:22;;;;;;;11.95;5.70;;;;;;;14.89;99.10;101632.38;5020142;28;20128;-56
2022/10/05 00:55:03;;;;;;;9.95;5.88;;;;;;;14.89;99.25;101632.38;5001716;28;20487;-59
2022/10/05 00:57:53;;;;;;;11.77;5.90;;;;;;;14.88;99.29;101625.25;5022007;28;20042;-53
2022/10/05 01:00:24;;;;;;;10.40;5.78;;;;;;;14.86;99.61;101632.94;5030162;28;20029;-58
2022/10/05 01:02:57;;;;;;;10.52;6.40;;;;;;;14.85;99.66;101625.00;5032949;28;20080;-58
2022/10/05 01:05:43;;;;;;;9.88;5.75;;;;;;;14.84;99.52;101628.81;5020197;28;20052;-59
2022/10/05 01:08:20;;;;;;;10.10;6.13;;;;;;;14.80;100.00;101628.56;5040861;28;20087;-58
2022/10/05 01:11:12;;;;;;;11.30;5.88;;;;;;;14.81;100.00;101629.38;5033594;28;20045;-57
2022/10/05 01:13:50;;;;;;;11.70;6.28;;;;;;;14.81;100.00;101616.47;5034666;28;20065;-58
2022/10/05 01:16:37;;;;;;;9.95;5.72;;;;;;;14.82;100.00;101614.56;5012697;28;20048;-57
2022/10/05 01:19:14;;;;;;;11.88;5.40;;;;;;;14.82;100.00;101604.41;5021135;28;20041;-60
2022/10/05 01:22:00;;;;;;;9.85;5.30;;;;;;;14.83;99.75;101610.72;5032986;28;20045;-58
2022/10/05 01:24:43;;;;;;;9.95;5.63;;;;;;;14.83;99.98;101600.56;5040317;28;20041;-56
2022/10/05 01:27:55;;;;;;;12.02;5.78;;;;;;;14.81;99.74;101594.53;5033359;28;20395;-56
2022/10/05 01:30:23;;;;;;;10.10;5.63;;;;;;;14.81;100.00;101594.53;5032752;28;20091;-57
2022/10/05 01:32:54;;;;;;;9.27;5.45;;;;;;;14.80;100.00;101595.63;5016410;28;20041;-57
2022/10/05 01:35:30;;;;;;;11.18;6.18;;;;;;;14.81;100.00;101593.72;5037278;28;20057;-55
2022/10/05 01:38:30;;;;;;;9.60;5.45;;;;;;;14.80;100.00;101586.59;5032637;28;20058;-57
2022/10/05 01:41:19;;;;;;;9.57;5.88;;;;;;;14.80;99.92;101594.81;5031791;28;20041;-56
2022/10/05 01:43:54;;;;;;;10.10;5.80;;;;;;;14.80;100.00;101594.81;5016824;28;20049;-56
2022/10/05 01:46:38;;;;;;;10.98;5.43;;;;;;;14.80;100.00;101586.59;5049445;28;20045;-55
2022/10/05 01:49:24;;;;;;;10.95;6.32;;;;;;;14.81;100.00;101582.72;5037273;28;20041;-57
2022/10/05 01:52:36;;;;;;;10.80;6.00;;;;;;;14.81;100.00;101586.28;5033729;28;20103;-54
2022/10/05 01:55:17;;;;;;;9.57;5.80;;;;;;;14.81;100.00;101580.00;5021446;28;20542;-55
2022/10/05 01:58:30;;;;;;;9.45;5.60;;;;;;;14.81;100.00;101575.31;5030320;28;20403;-59
2022/10/05 02:01:14;;;;;;;10.15;5.47;;;;;;;14.81;100.00;101571.75;5047627;28;20087;-57
2022/10/05 02:04:03;;;;;;;10.63;6.63;;;;;;;14.80;100.00;101556.41;5026095;28;20072;-58
2022/10/05 02:06:36;;;;;;;9.50;6.22;;;;;;;14.78;100.00;101544.88;5030630;28;20053;-57
2022/10/05 02:09:26;;;;;;;9.82;6.00;;;;;;;14.76;100.00;101552.56;5032271;28;20050;-54
2022/10/05 02:12:16;;;;;;;11.07;5.90;;;;;;;14.74;100.00;101547.34;5012956;28;20370;-56
2022/10/05 02:14:48;;;;;;;12.88;6.32;;;;;;;14.75;100.00;101543.53;5023409;28;20049;-58
2022/10/05 02:17:37;;;;;;;9.80;6.15;;;;;;;14.76;100.00;101547.91;5027324;28;20077;-57
2022/10/05 02:20:09;;;;;;;10.43;5.40;;;;;;;14.76;100.00;101549.81;5014820;28;20033;-58
2022/10/05 02:22:52;;;;;;;10.98;6.22;;;;;;;14.76;100.00;101542.41;5033536;28;20071;-58
2022/10/05 02:25:25;;;;;;;10.32;5.57;;;;;;;14.75;100.00;101543.53;5036279;28;20056;-56
2022/10/05 02:28:03;;;;;;;13.02;6.55;;;;;;;14.74;100.00;101544.59;5015993;28;20053;-54
2022/10/05 02:30:36;;;;;;;9.82;5.65;;;;;;;14.75;100.00;101542.72;5012895;28;20068;-57
2022/10/05 02:33:10;;;;;;;9.90;5.82;;;;;;;14.75;100.00;101531.75;5048481;28;20044;-57
2022/10/05 02:35:38;;;;;;;10.85;5.75;;;;;;;14.76;100.00;101527.88;5013556;28;20045;-55
2022/10/05 02:38:19;;;;;;;10.13;5.50;;;;;;;14.76;100.00;101523.22;5039217;28;20041;-56
2022/10/05 02:41:01;;;;;;;9.52;5.63;;;;;;;14.75;100.00;101518.03;5040551;28;20092;-57
2022/10/05 02:43:47;;;;;;;9.02;5.30;;;;;;;14.75;100.00;101518.84;5034618;28;20049;-54
2022/10/05 02:46:55;;;;;;;12.98;5.90;;;;;;;14.75;100.00;101518.03;5037309;28;20056;-56
2022/10/05 02:49:38;;;;;;;9.50;5.70;;;;;;;14.74;100.00;101514.44;5036893;28;20136;-59
2022/10/05 02:52:08;;;;;;;11.18;6.65;;;;;;;14.74;100.00;101511.69;5035699;28;20416;-54
2022/10/05 02:54:45;;;;;;;9.65;5.93;;;;;;;14.75;100.00;101515.28;5036527;28;20056;-56
2022/10/05 02:57:33;;;;;;;11.30;5.50;;;;;;;14.75;100.00;101505.13;5040910;28;20041;-57
2022/10/05 03:00:08;;;;;;;11.02;5.63;;;;;;;14.74;100.00;101495.22;5019698;28;20056;-56
2022/10/05 03:03:01;;;;;;;9.13;5.75;;;;;;;14.74;100.00;101491.66;5035341;28;20408;-59
2022/10/05 03:05:39;;;;;;;10.13;5.53;;;;;;;14.71;100.00;101476.59;5034444;28;20070;-55
2022/10/05 03:08:16;;;;;;;9.52;5.88;;;;;;;14.70;100.00;101475.78;5018247;28;20068;-55
2022/10/05 03:10:52;;;;;;;9.43;5.72;;;;;;;14.70;100.00;101486.75;5032025;28;20500;-57
2022/10/05 03:13:35;;;;;;;10.87;6.73;;;;;;;14.70;100.00;101485.94;5027575;28;20373;-56
2022/10/05 03:16:10;;;;;;;10.80;6.05;;;;;;;14.68;100.00;101488.13;5035658;28;20128;-53
2022/10/05 03:18:57;;;;;;;10.45;6.28;;;;;;;14.66;100.00;101484.84;5020723;28;20041;-55
2022/10/05 03:21:33;;;;;;;9.07;5.97;;;;;;;14.66;100.00;101480.19;5035712;28;20033;-56
2022/10/05 03:24:19;;;;;;;9.27;5.55;;;;;;;14.64;100.00;101487.84;5019115;28;20061;-57
2022/10/05 03:27:05;;;;;;;11.27;5.88;;;;;;;14.64;100.00;101490.59;5036525;28;20041;-57
2022/10/05 03:29:56;;;;;;;11.18;6.25;;;;;;;14.64;100.00;101481.56;5039664;28;20037;-53
2022/10/05 03:33:02;;;;;;;10.35;5.80;;;;;;;14.64;100.00;101489.78;5034324;28;20072;-58
2022/10/05 03:35:46;;;;;;;10.20;6.63;;;;;;;14.64;100.00;101493.34;5034728;28;20503;-58
2022/10/05 03:38:27;;;;;;;13.73;5.80;;;;;;;14.63;100.00;101488.97;5020026;28;20068;-59
2022/10/05 03:41:03;;;;;;;11.88;5.75;;;;;;;14.62;100.00;101483.75;5035519;28;20502;-58
2022/10/05 03:44:00;;;;;;;11.15;5.30;;;;;;;14.63;100.00;101485.41;5027068;28;20042;-59
2022/10/05 03:46:49;;;;;;;10.45;6.18;;;;;;;14.63;100.00;101483.47;5054243;28;20092;-58
2022/10/05 03:50:03;;;;;;;10.13;6.50;;;;;;;14.64;100.00;101487.03;5042654;28;20195;-56
2022/10/05 03:52:55;;;;;;;10.13;5.75;;;;;;;14.63;100.00;101477.19;5038996;28;20124;-55
2022/10/05 03:55:36;;;;;;;11.13;5.85;;;;;;;14.62;100.00;101483.75;5050706;28;20045;-57
2022/10/05 03:58:25;;;;;;;8.95;5.55;;;;;;;14.62;100.00;101475.53;5026445;28;20057;-56
2022/10/05 04:00:57;;;;;;;10.82;6.07;;;;;;;14.61;100.00;101487.59;5017898;28;20053;-57
2022/10/05 04:03:41;;;;;;;11.73;6.53;;;;;;;14.59;100.00;101484.31;5054751;28;20033;-54
2022/10/05 04:06:21;;;;;;;12.57;6.25;;;;;;;14.59;100.00;101473.34;5015868;28;20476;-59
2022/10/05 04:08:59;;;;;;;11.25;5.95;;;;;;;14.58;100.00;101477.19;5025469;28;20057;-58
2022/10/05 04:12:05;;;;;;;8.15;5.18;;;;;;;14.58;100.00;101477.19;5050128;28;20046;-56
2022/10/05 04:14:36;;;;;;;8.95;5.53;;;;;;;14.58;100.00;101485.44;5045733;28;20049;-55
2022/10/05 04:17:32;;;;;;;7.70;5.20;;;;;;;14.57;100.00;101478.28;5040009;28;20049;-54
2022/10/05 04:20:08;;;;;;;8.82;5.22;;;;;;;14.57;100.00;101481.03;5023751;28;20049;-56
2022/10/05 04:22:43;;;;;;;10.10;5.63;;;;;;;14.57;100.00;101487.34;5012611;28;20050;-57
2022/10/05 04:25:27;;;;;;;9.52;5.88;;;;;;;14.57;100.00;101475.53;5051120;28;20046;-57
2022/10/05 04:28:28;;;;;;;10.27;5.50;;;;;;;14.56;100.00;101484.88;5014951;28;20034;-55
2022/10/05 04:31:00;;;;;;;11.85;5.88;;;;;;;14.54;100.00;101482.41;5021171;28;20053;-55
2022/10/05 04:33:28;;;;;;;9.82;6.03;;;;;;;14.52;100.00;101479.09;5000404;28;20038;-58
2022/10/05 04:36:21;;;;;;;9.25;5.75;;;;;;;14.52;100.00;101473.59;5045829;28;20510;-57
2022/10/05 04:39:12;;;;;;;9.35;5.80;;;;;;;14.55;100.00;101472.25;5022330;28;20412;-59
2022/10/05 04:42:12;;;;;;;10.80;5.68;;;;;;;14.54;100.00;101462.41;4989120;28;20041;-58
2022/10/05 04:45:21;;;;;;;13.05;5.50;;;;;;;14.54;100.00;101459.66;5017640;28;20555;-56
2022/10/05 04:48:07;;;;;;;12.07;6.10;;;;;;;14.54;100.00;101470.63;5033961;28;20505;-55
2022/10/05 04:50:58;;;;;;;8.52;5.45;;;;;;;14.54;100.00;101460.47;4998936;28;20046;-56
2022/10/05 04:53:51;;;;;;;9.85;5.10;;;;;;;14.54;100.00;101462.41;5035586;28;20041;-56
2022/10/05 04:56:25;;;;;;;10.48;6.55;;;;;;;14.53;100.00;101466.19;5017013;28;20042;-56
2022/10/05 04:59:13;;;;;;;11.45;5.85;;;;;;;14.53;100.00;101463.44;5033631;28;20055;-57
2022/10/05 05:01:47;;;;;;;8.57;5.80;;;;;;;14.52;100.00;101462.63;5032568;28;20080;-60
2022/10/05 05:04:28;;;;;;;15.00;8.00;;;;;;;14.51;100.00;101457.44;5018657;28;20041;-60
2022/10/05 05:07:14;;;;;;;11.70;7.43;;;;;;;14.47;100.00;101455.25;5032509;28;20124;-57
2022/10/05 05:10:01;;;;;;;13.30;7.75;;;;;;;14.45;100.00;101457.44;5030696;28;20062;-57
2022/10/05 05:12:48;;;;;;;10.90;7.05;;;;;;;14.46;100.00;101448.13;5033554;28;20041;-55
2022/10/05 05:15:37;;;;;;;9.95;5.68;;;;;;;14.51;100.00;101449.22;5026189;28;21939;-56
2022/10/05 05:18:23;;;;;;;10.18;5.03;;;;;;;14.57;100.00;101459.09;5023428;28;20042;-56
2022/10/05 05:21:18;;;;;;;11.48;5.90;;;;;;;14.60;100.00;101456.63;5033041;28;20045;-60
2022/10/05 05:24:10;;;;;;;9.30;5.85;;;;;;;14.57;100.00;101451.69;5034363;28;20037;-56
2022/10/05 05:27:05;;;;;;;8.25;5.35;;;;;;;14.58;100.00;101449.78;5023575;28;20038;-57
2022/10/05 05:29:40;;;;;;;8.48;3.90;;;;;;;14.69;100.00;101440.41;5033228;28;20038;-56
2022/10/05 05:32:29;;;;;;;9.80;4.80;;;;;;;14.64;100.00;101443.16;5039119;28;20120;-60
2022/10/05 05:35:07;;;;;;;7.93;4.53;;;;;;;14.65;100.00;101439.34;5023156;28;20511;-55
2022/10/05 05:37:54;;;;;;;9.48;5.28;;;;;;;14.68;100.00;101439.56;5032975;28;20037;-56
2022/10/05 05:40:29;;;;;;;5.82;3.95;;;;;;;14.71;100.00;101438.19;5032803;28;20042;-56
2022/10/05 05:43:33;;;;;;;5.82;3.83;;;;;;;14.75;100.00;101438.47;4998038;28;20045;-60
2022/10/05 05:46:13;;;;;;;9.35;4.65;;;;;;;14.73;100.00;101436.00;5027010;28;20052;-57
2022/10/05 05:48:43;;;;;;;9.77;6.00;;;;;;;14.67;100.00;101437.94;5013269;28;20468;-60
2022/10/05 05:51:33;;;;;;;12.52;6.13;;;;;;;14.58;100.00;101441.56;5033230;28;20041;-56
2022/10/05 05:54:19;;;;;;;10.40;5.93;;;;;;;14.52;100.00;101437.16;5043448;28;20533;-56
2022/10/05 05:56:57;;;;;;;13.25;7.40;;;;;;;14.48;100.00;101440.44;5031658;28;20496;-55
2022/10/05 05:59:37;;;;;;;11.32;6.32;;;;;;;14.45;100.00;101440.16;5031502;28;20075;-60
2022/10/05 06:02:10;;;;;;;10.43;6.15;;;;;;;14.42;100.00;101435.25;5047613;28;20041;-57
2022/10/05 06:05:09;;;;;;;8.45;5.50;;;;;;;14.43;100.00;101437.72;5013205;28;20050;-59
2022/10/05 06:07:37;;;;;;;9.30;5.30;;;;;;;14.46;100.00;101433.59;5006565;28;20121;-59
2022/10/05 06:10:15;;;;;;;7.50;4.15;;;;;;;14.54;100.00;101434.97;5006477;28;20128;-56
2022/10/05 06:12:52;;;;;;;8.02;5.00;;;;;;;14.54;100.00;101437.72;5021515;28;20038;-57
2022/10/05 06:15:35;;;;;;;6.72;4.50;;;;;;;14.56;100.00;101441.00;5012775;28;20033;-57
2022/10/05 06:18:09;;;;;;;8.25;4.53;;;;;;;14.55;100.00;101439.34;5016128;28;20055;-55
2022/10/05 06:20:48;;;;;;;7.80;4.72;;;;;;;14.57;100.00;101431.66;5010051;28;20383;-59
2022/10/05 06:23:42;;;;;;;7.80;4.63;;;;;;;14.53;100.00;101428.66;5033755;28;20045;-60
2022/10/05 06:26:23;;;;;;;9.43;5.00;;;;;;;14.56;100.00;101430.03;5032670;28;20065;-57
2022/10/05 06:29:00;;;;;;;9.07;4.22;;;;;;;14.57;100.00;101440.72;5013416;28;20074;-62
2022/10/05 06:31:30;;;;;;;6.87;4.00;;;;;;;14.56;100.00;101441.81;4710959;28;10000334;-57
2022/10/05 06:34:05;;;;;;;9.70;3.78;;;;;;;14.57;100.00;101432.47;5055752;28;20299;-59
2022/10/05 06:36:39;;;;;;;6.72;3.72;;;;;;;14.58;100.00;101434.13;5018231;28;20054;-57
2022/10/05 06:39:38;;;;;;;7.50;4.20;;;;;;;14.58;100.00;101434.13;5029183;28;20049;-58
2022/10/05 06:42:20;;;;;;;10.68;4.88;;;;;;;14.58;100.00;101433.31;5060708;28;20080;-56
2022/10/05 06:45:27;;;;;;;;;;;;;;;14.68;100.00;101434.09;4998944;28;20045;-53
2022/10/05 06:48:45;;;;;;;8.35;4.10;;;;;;;14.67;100.00;101426.97;5025933;28;19921;-57
2022/10/05 06:52:10;;;;;;;6.25;3.75;;;;;;;14.64;100.00;101432.19;5020045;28;20057;-59
2022/10/05 06:55:18;;;;;;;7.32;3.42;;;;;;;14.65;100.00;101425.63;5034462;28;20041;-55
2022/10/05 06:57:58;;;;;;;8.68;4.82;;;;;;;14.67;100.00;101428.88;5018716;28;20100;-57
2022/10/05 07:00:49;;;;;;;6.20;4.13;;;;;;;14.64;100.00;101423.97;5001168;28;20045;-56
2022/10/05 07:03:40;;;;;;;8.40;4.05;;;;;;;14.64;100.00;101432.19;5028989;28;20412;-55
2022/10/05 07:06:24;;;;;;;5.68;3.70;;;;;;;14.70;100.00;101431.06;5039110;28;20068;-57
2022/10/05 07:09:20;;;;;;;7.60;3.95;;;;;;;14.72;100.00;101434.38;5009121;28;20062;-59
2022/10/05 07:11:48;;;;;;;6.65;4.13;;;;;;;14.74;100.00;101439.56;5039025;28;20050;-54
2022/10/05 07:14:24;;;;;;;;;;;;;;;14.80;100.00;101439.25;5030984;28;20037;-56
2022/10/05 07:17:22;;;;;;;6.13;3.65;;;;;;;14.83;100.00;101441.44;5032147;28;20051;-57
2022/10/05 07:20:02;;;;;;;9.48;3.97;;;;;;;14.83;100.00;101435.94;5052627;28;20072;-56
2022/10/05 07:22:38;;;;;;;6.25;3.33;;;;;;;14.82;100.00;101439.81;5001956;28;20075;-58
2022/10/05 07:25:19;;;;;;;9.27;3.83;;;;;;;14.80;100.00;101442.00;5021681;28;20091;-56
2022/10/05 07:28:06;;;;;;;5.22;3.40;;;;;;;14.82;100.00;101439.00;5000215;28;20456;-60
2022/10/05 07:31:07;;;;;;;5.97;3.65;;;;;;;14.83;100.00;101451.59;5032101;28;20049;-57
2022/10/05 07:33:46;;;;;;;7.57;3.72;;;;;;;14.83;99.94;101446.09;5025437;28;20077;-60
2022/10/05 07:39:34;;;;;;;9.23;4.00;;;;;;;14.84;99.76;101448.56;5031972;28;20040;-58
2022/10/05 07:42:55;;;;;;;6.18;3.70;;;;;;;14.82;100.00;101441.72;5018576;28;20050;-58
2022/10/05 07:45:50;;;;;;;13.10;4.70;;;;;;;14.82;100.00;101441.72;5022543;28;20058;-57
2022/10/05 07:48:47;;;;;;;7.00;3.72;;;;;;;14.83;99.86;101449.66;5033314;28;20111;-58
2022/10/05 07:51:21;;;;;;;7.22;4.05;;;;;;;14.86;100.00;101451.88;5022166;28;20064;-58
2022/10/05 07:53:54;;;;;;;8.00;3.88;;;;;;;14.88;99.72;101455.13;5019153;28;20041;-58
2022/10/05 07:56:29;;;;;;;6.78;3.88;;;;;;;14.86;99.85;101448.28;5018005;28;20041;-59
2022/10/05 07:59:01;;;;;;;9.98;3.47;;;;;;;14.86;100.00;101446.38;5018376;28;20080;-59
2022/10/05 08:01:34;;;;;;;7.15;3.90;;;;;;;14.87;99.56;101452.69;5018569;28;20053;-56
2022/10/05 08:04:25;;;;;;;9.60;4.25;;;;;;;14.87;99.45;101448.00;5028563;28;20057;-60
2022/10/05 08:07:05;;;;;;;10.50;4.88;;;;;;;14.89;99.44;101450.47;5050836;28;20049;-59
2022/10/05 08:09:38;;;;;;;12.98;5.57;;;;;;;14.90;99.25;101452.09;5032508;28;20405;-58
2022/10/05 08:12:24;;;;;;;19.15;7.10;;;;;;;14.94;99.56;101441.41;5033973;28;20125;-56
2022/10/05 08:15:04;;;;;;;19.30;6.72;;;;;;;14.99;99.62;101441.38;5046461;28;20056;-56
2022/10/05 08:17:50;;;;;;;25.83;8.75;;;;;;;15.05;100.00;101448.47;5057870;28;20457;-56
2022/10/05 08:20:25;;;;;;;19.63;7.65;;;;;;;15.08;99.73;101442.41;5039973;28;20045;-59
2022/10/05 08:23:01;;;;;;;15.50;5.95;;;;;;;15.07;99.41;101430.59;5022217;28;20080;-58
2022/10/05 08:25:45;;;;;;;13.35;5.72;;;;;;;15.08;99.37;101426.78;5036499;28;20502;-59
2022/10/05 08:28:17;;;;;;;16.55;6.35;;;;;;;15.15;99.52;101431.94;5036316;28;20404;-57
2022/10/05 08:30:54;;;;;;;20.75;6.78;;;;;;;15.21;99.02;101433.53;5030020;28;20060;-55
2022/10/05 08:33:24;;;;;;;13.98;5.78;;;;;;;15.21;98.98;101425.31;5035346;28;20072;-57
2022/10/05 08:36:07;;;;;;;8.10;4.38;;;;;;;15.20;98.98;101429.19;5034595;28;20103;-56
2022/10/05 08:38:35;;;;;;;16.00;6.10;;;;;;;15.22;98.98;101417.88;5034241;28;20049;-58
2022/10/05 08:41:41;;;;;;;10.40;5.32;;;;;;;15.22;98.80;101415.97;5034135;28;20488;-60
2022/10/05 08:44:41;;;;;;;12.25;4.90;;;;;;;15.22;98.83;101413.22;5024274;28;20435;-60
2022/10/05 08:47:18;;;;;;;8.68;4.60;;;;;;;15.25;98.69;101420.06;5034343;28;20050;-56
2022/10/05 08:49:48;;;;;;;10.90;4.47;;;;;;;15.27;98.82;101413.22;5038123;28;20048;-57
2022/10/05 08:52:27;;;;;;;16.33;5.50;;;;;;;15.34;99.18;101410.97;5035280;28;20056;-59
2022/10/05 08:55:19;;;;;;;12.32;5.10;;;;;;;15.39;98.91;101406.50;5034279;28;20045;-58
2022/10/05 08:57:47;;;;;;;17.33;5.68;;;;;;;15.39;98.90;101407.31;5034932;28;20124;-57
2022/10/05 09:00:24;;;;;;;15.48;5.53;;;;;;;15.42;98.74;101408.72;5037621;28;20041;-55
2022/10/05 09:03:05;;;;;;;11.60;4.40;;;;;;;15.46;98.10;101404.25;5016890;28;20053;-58
2022/10/05 09:06:00;;;;;;;14.55;5.78;;;;;;;15.47;98.44;101395.75;5034074;28;20129;-58
2022/10/05 09:08:57;;;;;;;8.15;3.70;;;;;;;15.46;98.05;101402.34;5038836;28;20053;-56
2022/10/05 09:11:38;;;;;;;8.05;3.85;;;;;;;15.48;98.00;101400.13;5024780;28;20033;-56
2022/10/05 09:14:24;;;;;;;12.45;4.45;;;;;;;15.55;98.25;101405.28;5018245;28;20446;-57
2022/10/05 09:17:07;;;;;;;15.00;5.97;;;;;;;15.60;97.80;101390.69;5034756;28;20034;-56
2022/10/05 09:20:08;;;;;;;16.35;7.13;;;;;;;15.71;98.05;101390.34;5020682;28;20404;-58
2022/10/05 09:23:19;;;;;;;12.68;5.22;;;;;;;15.80;97.18;101387.78;5034887;28;20052;-58
2022/10/05 09:26:05;;;;;;;14.55;5.32;;;;;;;15.76;97.05;101387.56;5045996;28;20053;-59
2022/10/05 09:28:44;;;;;;;13.57;5.10;;;;;;;15.75;96.94;101391.44;5035595;28;20034;-58
2022/10/05 09:31:39;;;;;;;13.50;4.57;;;;;;;15.74;96.77;101381.53;5028472;28;20054;-57
2022/10/05 09:34:33;;;;;;;15.75;5.88;;;;;;;15.81;97.27;101391.38;5034900;28;20042;-57
2022/10/05 09:37:27;;;;;;;16.52;4.95;;;;;;;15.82;96.79;101387.50;5034800;28;20401;-56
2022/10/05 09:40:30;;;;;;;13.43;4.75;;;;;;;15.81;96.93;101392.19;5033947;28;20049;-57
2022/10/05 09:43:13;;;;;;;7.82;3.38;;;;;;;15.77;96.29;101388.38;5029290;28;20551;-58
2022/10/05 09:45:59;;;;;;;7.57;3.88;;;;;;;15.73;96.54;101377.16;5000485;28;20041;-59
2022/10/05 09:48:48;;;;;;;9.30;4.00;;;;;;;15.74;96.44;101383.47;5034066;28;20048;-56
2022/10/05 09:51:44;;;;;;;7.25;3.70;;;;;;;15.75;96.42;101379.59;5035528;28;20050;-57
2022/10/05 09:54:37;;;;;;;7.15;3.30;;;;;;;15.78;96.65;101379.03;5038523;28;20149;-59
2022/10/05 09:57:43;;;;;;;12.77;4.03;;;;;;;15.82;96.51;101365.53;5033704;28;20404;-59
2022/10/05 10:00:49;;;;;;;6.10;3.40;;;;;;;15.86;96.46;101366.59;5032113;28;20041;-58
2022/10/05 10:04:06;;;;;;;9.73;4.50;;;;;;;15.94;95.34;101369.50;5037816;28;20049;-56
2022/10/05 10:06:52;;;;;;;7.18;3.75;;;;;;;15.95;95.55;101357.41;5041049;28;20124;-55
2022/10/05 10:09:36;;;;;;;7.75;3.70;;;;;;;15.95;95.68;101357.41;5025323;28;20054;-55
2022/10/05 10:12:08;;;;;;;21.27;7.10;;;;;;;16.03;94.99;101352.41;5028680;28;20052;-55
2022/10/05 10:15:09;;;;;;;16.80;6.15;;;;;;;16.11;95.70;101352.56;5033859;28;20044;-58
2022/10/05 10:18:13;;;;;;;12.75;4.93;;;;;;;16.15;95.01;101345.38;5031366;28;20041;-58
2022/10/05 10:20:59;;;;;;;12.57;5.07;;;;;;;16.19;95.38;101346.44;5032302;28;20037;-55
2022/10/05 10:23:47;;;;;;;9.23;4.10;;;;;;;16.18;95.06;101339.28;5033988;28;20097;-56
2022/10/05 10:26:43;;;;;;;22.60;7.25;;;;;;;16.26;96.25;101331.50;5033383;28;20045;-57
2022/10/05 10:29:29;;;;;;;22.95;7.13;;;;;;;16.37;96.04;101324.75;5036650;28;20443;-57
2022/10/05 10:32:15;;;;;;;8.45;4.22;;;;;;;16.38;94.99;101338.22;5026255;28;20041;-56
2022/10/05 10:35:03;;;;;;;14.02;4.97;;;;;;;16.40;94.56;101326.91;4335667;28;10000594;-55
2022/10/05 10:37:51;;;;;;;20.00;7.05;;;;;;;16.47;94.96;101324.63;5030135;28;20046;-57
2022/10/05 10:40:54;;;;;;;12.95;5.30;;;;;;;16.48;94.86;101319.97;5030417;28;20049;-57
2022/10/05 10:43:43;;;;;;;10.50;4.72;;;;;;;16.54;94.72;101316.81;5030847;28;20046;-55
2022/10/05 10:46:15;;;;;;;17.58;5.53;;;;;;;16.58;93.84;101304.13;5026311;28;20045;-56
2022/10/05 10:49:00;;;;;;;14.43;4.55;;;;;;;16.64;93.88;101315.06;5019176;28;20046;-57
2022/10/05 10:51:39;;;;;;;11.20;4.95;;;;;;;16.64;94.10;101306.78;5028859;28;20562;-59
2022/10/05 10:54:26;;;;;;;10.55;4.07;;;;;;;16.62;93.75;101298.84;5029355;28;20052;-57
2022/10/05 10:57:11;;;;;;;8.57;3.92;;;;;;;16.64;92.87;101307.59;5027723;28;20045;-56
2022/10/05 10:59:47;;;;;;;11.38;3.92;;;;;;;16.61;93.23;101298.00;5028817;28;20068;-57
2022/10/05 11:02:18;;;;;;;10.75;4.20;;;;;;;16.62;93.29;101307.13;5032450;28;20107;-58
2022/10/05 11:05:23;;;;;;;13.32;4.78;;;;;;;16.62;93.75;101304.38;5022531;28;20076;-60
2022/10/05 11:07:50;;;;;;;8.13;3.90;;;;;;;16.66;93.95;101293.56;5033707;28;20129;-56
2022/10/05 11:10:48;;;;;;;17.00;5.55;;;;;;;16.76;93.91;101288.75;5032809;28;20045;-59
2022/10/05 11:13:40;;;;;;;11.10;4.35;;;;;;;16.77;93.64;101286.81;5033761;28;20053;-59
2022/10/05 11:16:44;;;;;;;15.07;5.32;;;;;;;16.86;94.49;101293.31;5040780;28;20462;-59
2022/10/05 11:19:37;;;;;;;14.90;4.43;;;;;;;17.01;95.26;101284.78;5039131;28;20453;-58
2022/10/05 11:22:39;;;;;;;12.55;4.88;;;;;;;16.97;92.27;101288.44;5033751;28;20065;-56
2022/10/05 11:25:40;;;;;;;13.75;4.57;;;;;;;16.92;91.66;101275.56;5033652;28;20471;-58
2022/10/05 11:28:26;;;;;;;10.77;4.53;;;;;;;16.99;93.27;101278.75;5036463;28;20079;-58
2022/10/05 11:31:24;;;;;;;10.63;4.38;;;;;;;17.03;92.67;101271.56;5021456;28;20571;-57
2022/10/05 11:34:27;;;;;;;12.43;4.38;;;;;;;17.15;92.63;101264.72;5033636;28;20103;-56
2022/10/05 11:37:31;;;;;;;12.43;4.70;;;;;;;17.17;91.67;101260.59;5016400;28;20038;-57
2022/10/05 11:40:30;;;;;;;10.38;3.72;;;;;;;17.22;90.03;101262.41;5032316;28;20053;-55
2022/10/05 11:43:22;;;;;;;5.55;3.10;;;;;;;17.14;89.44;101260.34;5011991;28;20128;-55
2022/10/05 11:45:53;;;;;;;8.80;2.95;;;;;;;17.11;89.39;101249.97;5032246;28;20045;-57
2022/10/05 11:48:42;;;;;;;7.93;3.03;;;;;;;17.11;90.04;101247.19;5034018;28;20124;-60
2022/10/05 11:51:16;;;;;;;4.80;3.13;;;;;;;17.16;89.94;101236.91;5020066;28;20041;-58
2022/10/05 11:54:06;;;;;;;9.57;4.13;;;;;;;17.22;88.97;101246.72;5032236;28;20072;-54
2022/10/05 11:57:03;;;;;;;6.03;3.60;;;;;;;17.32;89.20;101240.22;5041381;28;20044;-57
2022/10/05 11:59:48;;;;;;;4.05;2.60;;;;;;;17.32;89.04;101231.97;5056410;28;20104;-57
2022/10/05 12:02:49;;;;;;;5.68;3.00;;;;;;;17.35;88.60;101236.03;5035426;28;20045;-57
2022/10/05 12:05:42;;;;;;;7.35;2.78;;;;;;;17.37;88.52;101229.09;5035742;28;20045;-58
2022/10/05 12:08:12;;;;;;;5.05;2.92;;;;;;;17.40;88.73;101220.22;5051207;28;20056;-58
2022/10/05 12:11:11;;;;;;;8.07;2.97;;;;;;;17.40;88.16;101211.16;5021817;28;20041;-58
2022/10/05 12:13:56;;;;;;;8.57;3.63;;;;;;;17.50;88.00;101210.94;5029820;28;20558;-52
2022/10/05 12:16:31;;;;;;;9.98;3.55;;;;;;;17.55;87.78;101204.53;5023377;28;20037;-58
2022/10/05 12:19:22;;;;;;;8.67;4.20;;;;;;;17.54;88.01;101191.88;5035747;28;20053;-57
2022/10/05 12:22:08;;;;;;;6.60;3.15;;;;;;;17.59;88.34;101200.84;5035861;28;20124;-57
2022/10/05 12:24:36;;;;;;;6.93;3.00;;;;;;;17.66;88.24;101189.41;5037172;28;20037;-62
2022/10/05 12:27:17;;;;;;;8.93;3.35;;;;;;;17.75;87.07;101189.50;5073785;28;20041;-57
2022/10/05 12:29:51;;;;;;;8.77;2.95;;;;;;;17.79;87.15;101182.25;5043286;28;20041;-57
2022/10/05 12:32:49;;;;;;;6.72;3.03;;;;;;;17.84;87.72;101180.22;5036571;28;20046;-57
2022/10/05 12:35:31;;;;;;;7.72;3.25;;;;;;;17.86;86.38;101180.75;5035238;28;20046;-58
2022/10/05 12:38:27;;;;;;;8.20;2.90;;;;;;;17.86;87.47;101182.69;5049482;28;20093;-55
2022/10/05 12:41:06;;;;;;;6.88;2.70;;;;;;;17.88;87.79;101184.00;5037343;28;20076;-60